Fruit Heights, Utah
Current Conditions -  °F | °C
As of 2:24 PM on Saturday 20 Dec 2014 (Local Time) from KHIF Reporting Station
Unknown Precip Unknown Precip  
Wind Chill: 29°   Ceiling: 5000
Heat Index: 36°   Visibility: 8mi
Dew Point: 36°   Wind: 9mph
Humidity: 100%   Direction: 150°SSE
Pressure: 30.06"   Gusts: NA
Location:  41.0365°N, 111.927°W
Report Text: KHIF 202124Z AUTO 15008KT 8SM UP FEW012 OVC050 02/02 A3006 RMK AO2 UPB07E17UPB19
Loading
Personal Weather Stations






























Interactive Weather Map New forecast layout! Learn more

10-Day Weather Forecast

Advertisements
Track Severe Weather on mobile